Time,TemperatureF,DewpointF,PressureIn,WindDirection,WindDirectionDegrees,WindSpeedMPH,WindSpeedGustMPH,Humidity,HourlyPrecipIn,Conditions,Clouds,dailyrainin,SolarRadiationWatts/m^2,SoftwareType,DateUTC
2013-10-27 00:02:00,-999.0,-99.9,-100.00,NNW,346,8.0,17.0,-999,-99.99,,,-99.99,0.000000,,2013-10-27 04:02:00,
2013-10-27 00:13:00,39.0,25.0,-100.00,NNW,346,8.0,17.0,58,0.00,,,0.00,0.000000,,2013-10-27 04:13:00,
2013-10-27 00:44:00,39.0,26.0,-100.00,North,353,9.0,17.0,60,0.00,,,0.00,0.000000,,2013-10-27 04:44:00,
2013-10-27 00:54:00,39.0,26.0,-100.00,North,353,9.0,17.0,60,0.00,,,0.00,0.000000,,2013-10-27 04:54:00,
2013-10-27 01:04:00,39.0,26.0,-100.00,North,353,9.0,17.0,60,0.00,,,0.00,0.000000,,2013-10-27 05:04:00,
2013-10-27 01:13:00,39.0,26.0,-100.00,North,353,9.0,17.0,60,0.00,,,0.00,0.000000,,2013-10-27 05:13:00,
2013-10-27 01:52:00,39.0,27.0,-100.00,North,2,14.0,24.0,63,0.00,,,0.00,0.000000,,2013-10-27 05:52:00,
2013-10-27 02:01:00,39.0,27.0,-100.00,North,2,14.0,24.0,63,0.00,,,0.00,0.000000,,2013-10-27 06:01:00,
2013-10-27 02:13:00,39.0,27.0,-100.00,North,2,14.0,24.0,63,0.00,,,0.00,0.000000,,2013-10-27 06:13:00,
2013-10-27 02:42:00,37.0,27.0,-100.00,North,4,8.0,22.0,68,0.00,,,0.00,0.000000,,2013-10-27 06:42:00,
2013-10-27 02:53:00,37.0,27.0,-100.00,North,4,8.0,22.0,68,0.00,,,0.00,0.000000,,2013-10-27 06:53:00,
2013-10-27 03:02:00,37.0,27.0,-100.00,North,4,8.0,22.0,68,0.00,,,0.00,0.000000,,2013-10-27 07:02:00,
2013-10-27 03:12:00,37.0,27.0,-100.00,North,4,8.0,22.0,68,0.00,,,0.00,0.000000,,2013-10-27 07:12:00,
2013-10-27 03:42:00,36.0,29.0,-100.00,North,8,8.0,16.0,76,0.00,,,0.00,0.000000,,2013-10-27 07:42:00,
2013-10-27 03:52:00,36.0,29.0,-100.00,North,8,8.0,16.0,76,0.00,,,0.00,0.000000,,2013-10-27 07:52:00,
2013-10-27 04:03:00,36.0,29.0,-100.00,North,8,8.0,16.0,76,0.00,,,0.00,0.000000,,2013-10-27 08:03:00,
2013-10-27 04:11:00,36.0,29.0,-100.00,North,8,8.0,16.0,76,0.00,,,0.00,0.000000,,2013-10-27 08:11:00,
2013-10-27 04:42:00,36.0,30.0,-100.00,North,1,10.0,20.0,78,0.00,,,0.00,0.000000,,2013-10-27 08:42:00,
2013-10-27 04:52:00,36.0,30.0,-100.00,North,1,10.0,20.0,78,0.00,,,0.00,0.000000,,2013-10-27 08:52:00,
2013-10-27 05:02:00,36.0,30.0,-100.00,North,1,10.0,20.0,78,0.00,,,0.00,0.000000,,2013-10-27 09:02:00,
2013-10-27 05:12:00,36.0,30.0,-100.00,North,1,10.0,20.0,78,0.00,,,0.00,0.000000,,2013-10-27 09:12:00,
2013-10-27 05:43:00,35.0,30.0,-100.00,North,6,9.0,23.0,82,0.00,,,0.00,0.000000,,2013-10-27 09:43:00,
2013-10-27 05:54:00,35.0,30.0,-100.00,North,6,9.0,23.0,82,0.00,,,0.00,0.000000,,2013-10-27 09:54:00,
2013-10-27 06:03:00,35.0,30.0,-100.00,North,6,9.0,23.0,82,0.00,,,0.00,0.000000,,2013-10-27 10:03:00,
2013-10-27 06:13:00,35.0,30.0,-100.00,North,6,9.0,23.0,82,0.00,,,0.00,0.000000,,2013-10-27 10:13:00,
2013-10-27 06:42:00,36.0,30.0,-100.00,North,4,7.0,19.0,80,0.00,,,0.00,0.000000,,2013-10-27 10:42:00,
2013-10-27 06:53:00,36.0,30.0,-100.00,North,4,7.0,19.0,80,0.00,,,0.00,0.000000,,2013-10-27 10:53:00,
2013-10-27 07:03:00,36.0,30.0,-100.00,North,4,7.0,19.0,80,0.00,,,0.00,0.000000,,2013-10-27 11:03:00,
2013-10-27 07:12:00,36.0,30.0,-100.00,North,4,7.0,19.0,80,0.00,,,0.00,0.000000,,2013-10-27 11:12:00,
2013-10-27 07:42:00,35.0,30.0,-100.00,North,1,6.0,12.0,81,0.00,,,0.00,0.000000,,2013-10-27 11:42:00,
2013-10-27 07:52:00,35.0,30.0,-100.00,North,1,6.0,12.0,81,0.00,,,0.00,0.000000,,2013-10-27 11:52:00,
2013-10-27 08:01:00,35.0,30.0,-100.00,North,1,6.0,12.0,81,0.00,,,0.00,0.000000,,2013-10-27 12:01:00,
2013-10-27 08:12:00,35.0,30.0,-100.00,North,1,6.0,12.0,81,0.00,,,0.00,0.000000,,2013-10-27 12:12:00,
2013-10-27 08:42:00,35.0,30.0,-100.00,North,353,7.0,14.0,81,0.00,,,0.00,8.000000,,2013-10-27 12:42:00,
2013-10-27 08:52:00,35.0,30.0,-100.00,North,353,7.0,14.0,81,0.00,,,0.00,8.000000,,2013-10-27 12:52:00,
2013-10-27 09:02:00,35.0,30.0,-100.00,North,353,7.0,14.0,81,0.00,,,0.00,8.000000,,2013-10-27 13:02:00,
2013-10-27 09:12:00,35.0,30.0,-100.00,North,353,7.0,14.0,81,0.00,,,0.00,8.000000,,2013-10-27 13:12:00,
2013-10-27 09:42:00,36.0,30.0,-100.00,North,359,8.0,15.0,79,0.00,,,0.00,70.000000,,2013-10-27 13:42:00,
2013-10-27 09:52:00,36.0,30.0,-100.00,North,359,8.0,15.0,79,0.00,,,0.00,70.000000,,2013-10-27 13:52:00,
2013-10-27 10:02:00,36.0,30.0,-100.00,North,359,8.0,15.0,79,0.00,,,0.00,70.000000,,2013-10-27 14:02:00,
2013-10-27 10:11:00,36.0,30.0,-100.00,North,359,8.0,15.0,79,0.00,,,0.00,70.000000,,2013-10-27 14:11:00,
2013-10-27 10:42:00,40.0,32.0,-100.00,North,358,7.0,15.0,73,0.00,,,0.00,200.000000,,2013-10-27 14:42:00,
2013-10-27 10:52:00,40.0,32.0,-100.00,North,358,7.0,15.0,73,0.00,,,0.00,200.000000,,2013-10-27 14:52:00,
2013-10-27 11:01:00,40.0,32.0,-100.00,North,358,7.0,15.0,73,0.00,,,0.00,200.000000,,2013-10-27 15:01:00,
2013-10-27 11:12:00,40.0,32.0,-100.00,North,358,7.0,15.0,73,0.00,,,0.00,200.000000,,2013-10-27 15:12:00,
2013-10-27 11:54:00,40.0,30.0,-100.00,North,3,7.0,14.0,66,0.00,,,0.00,234.000000,,2013-10-27 15:54:00,
2013-10-27 12:04:00,40.0,30.0,-100.00,North,3,7.0,14.0,66,0.00,,,0.00,234.000000,,2013-10-27 16:04:00,
2013-10-27 12:13:00,40.0,30.0,-100.00,North,3,7.0,14.0,66,0.00,,,0.00,234.000000,,2013-10-27 16:13:00,
2013-10-27 12:43:00,40.0,28.0,-100.00,North,358,9.0,19.0,62,0.00,,,0.00,168.000000,,2013-10-27 16:43:00,
2013-10-27 12:54:00,40.0,28.0,-100.00,North,358,9.0,19.0,62,0.00,,,0.00,168.000000,,2013-10-27 16:54:00,
2013-10-27 13:04:00,40.0,28.0,-100.00,North,358,9.0,19.0,62,0.00,,,0.00,168.000000,,2013-10-27 17:04:00,
2013-10-27 13:13:00,40.0,28.0,-100.00,North,358,9.0,19.0,62,0.00,,,0.00,168.000000,,2013-10-27 17:13:00,
2013-10-27 13:43:00,41.0,27.0,-100.00,North,5,9.0,16.0,56,0.00,,,0.00,192.000000,,2013-10-27 17:43:00,
2013-10-27 13:53:00,41.0,27.0,-100.00,North,5,9.0,16.0,56,0.00,,,0.00,192.000000,,2013-10-27 17:53:00,
2013-10-27 14:02:00,41.0,27.0,-100.00,North,5,9.0,16.0,56,0.00,,,0.00,192.000000,,2013-10-27 18:02:00,
2013-10-27 14:12:00,41.0,27.0,-100.00,North,5,9.0,16.0,56,0.00,,,0.00,192.000000,,2013-10-27 18:12:00,
2013-10-27 14:43:00,42.0,26.0,-100.00,North,4,8.0,17.0,53,0.00,,,0.00,203.000000,,2013-10-27 18:43:00,
2013-10-27 14:53:00,42.0,26.0,-100.00,North,4,8.0,17.0,53,0.00,,,0.00,203.000000,,2013-10-27 18:53:00,
2013-10-27 15:02:00,42.0,26.0,-100.00,North,4,8.0,17.0,53,0.00,,,0.00,203.000000,,2013-10-27 19:02:00,
2013-10-27 15:12:00,42.0,26.0,-100.00,North,4,8.0,17.0,53,0.00,,,0.00,203.000000,,2013-10-27 19:12:00,
2013-10-27 15:42:00,42.0,25.0,-100.00,North,7,9.0,19.0,50,0.00,,,0.00,182.000000,,2013-10-27 19:42:00,
2013-10-27 15:52:00,42.0,25.0,-100.00,North,7,9.0,19.0,50,0.00,,,0.00,182.000000,,2013-10-27 19:52:00,
2013-10-27 16:02:00,42.0,25.0,-100.00,North,7,9.0,19.0,50,0.00,,,0.00,182.000000,,2013-10-27 20:02:00,
2013-10-27 16:12:00,42.0,25.0,-100.00,North,7,9.0,19.0,50,0.00,,,0.00,182.000000,,2013-10-27 20:12:00,
2013-10-27 16:43:00,40.0,24.0,-100.00,North,7,8.0,15.0,52,0.00,,,0.00,97.000000,,2013-10-27 20:43:00,
2013-10-27 16:52:00,40.0,24.0,-100.00,North,7,8.0,15.0,52,0.00,,,0.00,97.000000,,2013-10-27 20:52:00,
2013-10-27 17:02:00,40.0,24.0,-100.00,North,7,8.0,15.0,52,0.00,,,0.00,97.000000,,2013-10-27 21:02:00,
2013-10-27 17:11:00,40.0,24.0,-100.00,North,7,8.0,15.0,52,0.00,,,0.00,97.000000,,2013-10-27 21:11:00,
2013-10-27 17:44:00,39.0,25.0,-100.00,North,7,8.0,15.0,58,0.00,,,0.00,37.000000,,2013-10-27 21:44:00,
2013-10-27 17:54:00,39.0,25.0,-100.00,North,7,8.0,15.0,58,0.00,,,0.00,37.000000,,2013-10-27 21:54:00,
2013-10-27 18:04:00,39.0,25.0,-100.00,North,7,8.0,15.0,58,0.00,,,0.00,37.000000,,2013-10-27 22:04:00,
2013-10-27 18:13:00,39.0,25.0,-100.00,North,7,8.0,15.0,58,0.00,,,0.00,37.000000,,2013-10-27 22:13:00,
2013-10-27 18:43:00,39.0,26.0,-100.00,North,359,5.0,16.0,59,0.00,,,0.00,11.000000,,2013-10-27 22:43:00,
2013-10-27 18:54:00,39.0,26.0,-100.00,North,359,5.0,16.0,59,0.00,,,0.00,11.000000,,2013-10-27 22:54:00,
2013-10-27 19:03:00,39.0,26.0,-100.00,North,359,5.0,16.0,59,0.00,,,0.00,11.000000,,2013-10-27 23:03:00,
2013-10-27 19:12:00,39.0,26.0,-100.00,North,359,5.0,16.0,59,0.00,,,0.00,11.000000,,2013-10-27 23:12:00,
2013-10-27 19:43:00,38.0,26.0,-100.00,North,359,6.0,14.0,61,0.00,,,0.00,0.000000,,2013-10-27 23:43:00,
2013-10-27 19:52:00,38.0,26.0,-100.00,North,359,6.0,14.0,61,0.00,,,0.00,0.000000,,2013-10-27 23:52:00,
2013-10-27 20:02:00,38.0,26.0,-100.00,North,359,6.0,14.0,61,0.00,,,0.00,0.000000,,2013-10-28 00:02:00,
2013-10-27 20:11:00,38.0,26.0,-100.00,North,359,6.0,14.0,61,0.00,,,0.00,0.000000,,2013-10-28 00:11:00,
2013-10-27 20:43:00,37.0,25.0,-100.00,North,7,5.0,11.0,62,0.00,,,0.00,0.000000,,2013-10-28 00:43:00,
2013-10-27 20:52:00,37.0,25.0,-100.00,North,7,5.0,11.0,62,0.00,,,0.00,0.000000,,2013-10-28 00:52:00,
2013-10-27 21:02:00,37.0,25.0,-100.00,North,7,5.0,11.0,62,0.00,,,0.00,0.000000,,2013-10-28 01:02:00,
2013-10-27 21:12:00,37.0,25.0,-100.00,North,7,5.0,11.0,62,0.00,,,0.00,0.000000,,2013-10-28 01:12:00,
2013-10-27 21:42:00,36.0,26.0,-100.00,North,359,5.0,10.0,67,0.00,,,0.00,0.000000,,2013-10-28 01:42:00,
2013-10-27 21:52:00,36.0,26.0,-100.00,North,359,5.0,10.0,67,0.00,,,0.00,0.000000,,2013-10-28 01:52:00,
2013-10-27 22:02:00,36.0,26.0,-100.00,North,359,5.0,10.0,67,0.00,,,0.00,0.000000,,2013-10-28 02:02:00,
2013-10-27 22:12:00,36.0,26.0,-100.00,North,359,5.0,10.0,67,0.00,,,0.00,0.000000,,2013-10-28 02:12:00,
2013-10-27 22:42:00,35.0,25.0,-100.00,North,5,6.0,12.0,67,0.00,,,0.00,0.000000,,2013-10-28 02:42:00,
2013-10-27 22:53:00,35.0,25.0,-100.00,North,5,6.0,12.0,67,0.00,,,0.00,0.000000,,2013-10-28 02:53:00,
2013-10-27 23:02:00,35.0,25.0,-100.00,North,5,6.0,12.0,67,0.00,,,0.00,0.000000,,2013-10-28 03:02:00,
2013-10-27 23:11:00,35.0,25.0,-100.00,North,5,6.0,12.0,67,0.00,,,0.00,0.000000,,2013-10-28 03:11:00,
2013-10-27 23:54:00,35.0,26.0,-100.00,North,359,5.0,9.0,69,0.00,,,0.00,0.000000,,2013-10-28 03:54:00,